sensor_id;sensor_type;location;lat;lon;timestamp;temperature;humidity
54006;DHT22;39919;38.160;-122.260;2023-02-16T01:25:31;14.20;37.60
54006;DHT22;39919;38.160;-122.260;2023-02-16T01:28:08;14.20;38.10
54006;DHT22;39919;38.160;-122.260;2023-02-16T01:30:42;14.10;38.10
54006;DHT22;39919;38.160;-122.260;2023-02-16T01:33:11;14.10;38.60
54006;DHT22;39919;38.160;-122.260;2023-02-16T01:35:43;14.00;39.00
54006;DHT22;39919;38.160;-122.260;2023-02-16T01:38:17;13.90;39.60
54006;DHT22;39919;38.160;-122.260;2023-02-16T01:40:58;13.80;40.00
54006;DHT22;39919;38.160;-122.260;2023-02-16T01:43:32;13.80;40.50
54006;DHT22;39919;38.160;-122.260;2023-02-16T01:46:11;13.70;40.80
54006;DHT22;39919;38.160;-122.260;2023-02-16T01:48:42;13.60;40.90
54006;DHT22;39919;38.160;-122.260;2023-02-16T01:51:15;13.50;41.20
54006;DHT22;39919;38.160;-122.260;2023-02-16T01:53:52;13.40;41.40
54006;DHT22;39919;38.160;-122.260;2023-02-16T01:59:18;13.20;41.80
54006;DHT22;39919;38.160;-122.260;2023-02-16T02:01:55;13.20;42.10
54006;DHT22;39919;38.160;-122.260;2023-02-16T02:04:28;13.10;42.20
54006;DHT22;39919;38.160;-122.260;2023-02-16T02:07:23;13.00;42.20
54006;DHT22;39919;38.160;-122.260;2023-02-16T02:10:00;12.90;42.20
54006;DHT22;39919;38.160;-122.260;2023-02-16T02:12:39;12.70;42.30
54006;DHT22;39919;38.160;-122.260;2023-02-16T02:15:12;12.60;43.00
54006;DHT22;39919;38.160;-122.260;2023-02-16T02:17:50;12.50;44.10
54006;DHT22;39919;38.160;-122.260;2023-02-16T02:20:24;12.40;46.10
54006;DHT22;39919;38.160;-122.260;2023-02-16T02:23:32;12.30;46.40
54006;DHT22;39919;38.160;-122.260;2023-02-16T02:32:15;11.90;50.60
54006;DHT22;39919;38.160;-122.260;2023-02-16T02:35:07;11.90;51.10
54006;DHT22;39919;38.160;-122.260;2023-02-16T02:37:51;11.80;51.10
54006;DHT22;39919;38.160;-122.260;2023-02-16T02:40:45;11.70;53.40
54006;DHT22;39919;38.160;-122.260;2023-02-16T02:43:19;11.60;56.70
54006;DHT22;39919;38.160;-122.260;2023-02-16T02:45:59;11.50;57.70
54006;DHT22;39919;38.160;-122.260;2023-02-16T02:48:31;11.50;58.30
54006;DHT22;39919;38.160;-122.260;2023-02-16T02:51:07;11.40;57.10
54006;DHT22;39919;38.160;-122.260;2023-02-16T02:54:00;11.30;56.20
54006;DHT22;39919;38.160;-122.260;2023-02-16T02:56:56;11.30;57.90
54006;DHT22;39919;38.160;-122.260;2023-02-16T02:59:52;11.20;58.60
54006;DHT22;39919;38.160;-122.260;2023-02-16T03:02:41;11.10;60.80
54006;DHT22;39919;38.160;-122.260;2023-02-16T03:05:13;11.10;62.60
54006;DHT22;39919;38.160;-122.260;2023-02-16T03:07:47;11.10;63.10
54006;DHT22;39919;38.160;-122.260;2023-02-16T03:10:21;11.00;62.60
54006;DHT22;39919;38.160;-122.260;2023-02-16T03:13:13;10.90;61.70
54006;DHT22;39919;38.160;-122.260;2023-02-16T03:15:44;10.90;61.50
54006;DHT22;39919;38.160;-122.260;2023-02-16T03:18:17;10.80;61.80
54006;DHT22;39919;38.160;-122.260;2023-02-16T03:21:03;10.70;62.20
54006;DHT22;39919;38.160;-122.260;2023-02-16T03:23:51;10.70;63.20
54006;DHT22;39919;38.160;-122.260;2023-02-16T03:26:38;10.60;61.70
54006;DHT22;39919;38.160;-122.260;2023-02-16T03:29:25;10.60;61.10
54006;DHT22;39919;38.160;-122.260;2023-02-16T03:31:57;10.50;60.40
54006;DHT22;39919;38.160;-122.260;2023-02-16T03:34:31;10.40;59.80
54006;DHT22;39919;38.160;-122.260;2023-02-16T03:37:03;10.30;59.20
54006;DHT22;39919;38.160;-122.260;2023-02-16T03:39:33;10.30;58.80
54006;DHT22;39919;38.160;-122.260;2023-02-16T03:42:23;10.20;58.40
54006;DHT22;39919;38.160;-122.260;2023-02-16T03:44:52;10.10;58.00
54006;DHT22;39919;38.160;-122.260;2023-02-16T03:47:21;10.00;57.90
54006;DHT22;39919;38.160;-122.260;2023-02-16T03:49:52;9.90;57.70
54006;DHT22;39919;38.160;-122.260;2023-02-16T03:52:22;9.90;57.90
54006;DHT22;39919;38.160;-122.260;2023-02-16T03:54:51;9.80;58.00
54006;DHT22;39919;38.160;-122.260;2023-02-16T03:57:22;9.70;58.00
54006;DHT22;39919;38.160;-122.260;2023-02-16T03:59:52;9.60;58.00
54006;DHT22;39919;38.160;-122.260;2023-02-16T04:02:34;9.50;58.30
54006;DHT22;39919;38.160;-122.260;2023-02-16T04:05:05;9.50;59.00
54006;DHT22;39919;38.160;-122.260;2023-02-16T04:07:34;9.40;58.70
54006;DHT22;39919;38.160;-122.260;2023-02-16T04:10:04;9.30;59.10
54006;DHT22;39919;38.160;-122.260;2023-02-16T04:12:33;9.20;59.00
54006;DHT22;39919;38.160;-122.260;2023-02-16T04:15:05;9.20;59.20
54006;DHT22;39919;38.160;-122.260;2023-02-16T04:17:36;9.10;60.40
54006;DHT22;39919;38.160;-122.260;2023-02-16T04:20:09;9.00;60.40
54006;DHT22;39919;38.160;-122.260;2023-02-16T04:22:38;8.90;60.00
54006;DHT22;39919;38.160;-122.260;2023-02-16T04:25:10;8.90;60.40
54006;DHT22;39919;38.160;-122.260;2023-02-16T04:27:40;8.80;60.90
54006;DHT22;39919;38.160;-122.260;2023-02-16T04:30:12;8.70;61.00
54006;DHT22;39919;38.160;-122.260;2023-02-16T04:32:42;8.60;60.60
54006;DHT22;39919;38.160;-122.260;2023-02-16T04:35:14;8.60;60.70
54006;DHT22;39919;38.160;-122.260;2023-02-16T04:37:43;8.50;60.50
54006;DHT22;39919;38.160;-122.260;2023-02-16T04:40:21;8.40;60.90
54006;DHT22;39919;38.160;-122.260;2023-02-16T04:43:13;8.30;61.10
54006;DHT22;39919;38.160;-122.260;2023-02-16T04:45:52;8.30;61.30
54006;DHT22;39919;38.160;-122.260;2023-02-16T04:48:34;8.20;61.30
54006;DHT22;39919;38.160;-122.260;2023-02-16T04:51:05;8.20;61.80
54006;DHT22;39919;38.160;-122.260;2023-02-16T04:53:34;8.10;62.10
54006;DHT22;39919;38.160;-122.260;2023-02-16T04:56:04;8.00;62.60
54006;DHT22;39919;38.160;-122.260;2023-02-16T04:58:33;7.90;62.30
54006;DHT22;39919;38.160;-122.260;2023-02-16T05:01:02;7.90;62.90
54006;DHT22;39919;38.160;-122.260;2023-02-16T05:03:32;7.90;63.80
54006;DHT22;39919;38.160;-122.260;2023-02-16T05:06:01;7.80;63.30
54006;DHT22;39919;38.160;-122.260;2023-02-16T05:08:34;7.80;63.00
54006;DHT22;39919;38.160;-122.260;2023-02-16T05:11:03;7.70;63.40
54006;DHT22;39919;38.160;-122.260;2023-02-16T05:13:52;7.60;63.80
54006;DHT22;39919;38.160;-122.260;2023-02-16T05:16:37;7.60;63.30
54006;DHT22;39919;38.160;-122.260;2023-02-16T05:19:06;7.50;63.50
54006;DHT22;39919;38.160;-122.260;2023-02-16T05:21:35;7.40;63.90
54006;DHT22;39919;38.160;-122.260;2023-02-16T05:24:08;7.40;64.20
54006;DHT22;39919;38.160;-122.260;2023-02-16T05:26:38;7.30;64.50
54006;DHT22;39919;38.160;-122.260;2023-02-16T05:29:07;7.20;65.10
54006;DHT22;39919;38.160;-122.260;2023-02-16T05:31:37;7.20;65.00
54006;DHT22;39919;38.160;-122.260;2023-02-16T05:34:06;7.20;65.80
54006;DHT22;39919;38.160;-122.260;2023-02-16T05:36:36;7.10;66.00
54006;DHT22;39919;38.160;-122.260;2023-02-16T05:39:07;7.10;66.60
54006;DHT22;39919;38.160;-122.260;2023-02-16T05:41:36;7.00;67.20
54006;DHT22;39919;38.160;-122.260;2023-02-16T05:44:06;6.90;67.00
54006;DHT22;39919;38.160;-122.260;2023-02-16T05:46:37;6.90;66.80
54006;DHT22;39919;38.160;-122.260;2023-02-16T05:49:07;6.90;66.60
54006;DHT22;39919;38.160;-122.260;2023-02-16T05:51:36;6.80;66.10
54006;DHT22;39919;38.160;-122.260;2023-02-16T05:54:08;6.80;65.60
54006;DHT22;39919;38.160;-122.260;2023-02-16T05:56:43;6.70;65.30
54006;DHT22;39919;38.160;-122.260;2023-02-16T05:59:13;6.70;66.00
54006;DHT22;39919;38.160;-122.260;2023-02-16T06:01:43;6.60;66.40
54006;DHT22;39919;38.160;-122.260;2023-02-16T06:04:13;6.60;65.70
54006;DHT22;39919;38.160;-122.260;2023-02-16T06:06:42;6.50;65.90
54006;DHT22;39919;38.160;-122.260;2023-02-16T06:09:14;6.40;66.40
54006;DHT22;39919;38.160;-122.260;2023-02-16T06:11:43;6.40;67.10
54006;DHT22;39919;38.160;-122.260;2023-02-16T06:14:14;6.40;67.40
54006;DHT22;39919;38.160;-122.260;2023-02-16T06:16:45;6.30;67.40
54006;DHT22;39919;38.160;-122.260;2023-02-16T06:19:18;6.20;67.70
54006;DHT22;39919;38.160;-122.260;2023-02-16T06:21:47;6.20;67.80
54006;DHT22;39919;38.160;-122.260;2023-02-16T06:24:18;6.20;67.60
54006;DHT22;39919;38.160;-122.260;2023-02-16T06:26:50;6.20;67.70
54006;DHT22;39919;38.160;-122.260;2023-02-16T06:29:19;6.10;68.00
54006;DHT22;39919;38.160;-122.260;2023-02-16T06:31:51;6.10;68.80
54006;DHT22;39919;38.160;-122.260;2023-02-16T06:34:23;6.00;69.50
54006;DHT22;39919;38.160;-122.260;2023-02-16T06:36:52;6.00;69.80
54006;DHT22;39919;38.160;-122.260;2023-02-16T06:39:23;5.90;69.40
54006;DHT22;39919;38.160;-122.260;2023-02-16T06:41:53;5.90;69.50
54006;DHT22;39919;38.160;-122.260;2023-02-16T06:44:23;5.90;69.80
54006;DHT22;39919;38.160;-122.260;2023-02-16T06:46:52;5.90;69.80
54006;DHT22;39919;38.160;-122.260;2023-02-16T06:49:21;5.80;69.80
54006;DHT22;39919;38.160;-122.260;2023-02-16T06:51:51;5.80;69.80
54006;DHT22;39919;38.160;-122.260;2023-02-16T06:54:22;5.80;69.90
54006;DHT22;39919;38.160;-122.260;2023-02-16T06:56:51;5.70;70.00
54006;DHT22;39919;38.160;-122.260;2023-02-16T06:59:20;5.70;70.50
54006;DHT22;39919;38.160;-122.260;2023-02-16T07:01:52;5.70;70.70
54006;DHT22;39919;38.160;-122.260;2023-02-16T07:04:21;5.60;70.60
54006;DHT22;39919;38.160;-122.260;2023-02-16T07:06:51;5.60;70.70
54006;DHT22;39919;38.160;-122.260;2023-02-16T07:09:20;5.60;71.10
54006;DHT22;39919;38.160;-122.260;2023-02-16T07:11:53;5.50;70.40
54006;DHT22;39919;38.160;-122.260;2023-02-16T07:14:23;5.50;70.20
54006;DHT22;39919;38.160;-122.260;2023-02-16T07:16:52;5.50;69.90
54006;DHT22;39919;38.160;-122.260;2023-02-16T07:19:23;5.40;69.50
54006;DHT22;39919;38.160;-122.260;2023-02-16T07:21:52;5.40;69.80
54006;DHT22;39919;38.160;-122.260;2023-02-16T07:24:21;5.30;69.80
54006;DHT22;39919;38.160;-122.260;2023-02-16T07:26:52;5.30;69.80
54006;DHT22;39919;38.160;-122.260;2023-02-16T07:29:21;5.30;69.60
54006;DHT22;39919;38.160;-122.260;2023-02-16T07:31:51;5.20;69.60
54006;DHT22;39919;38.160;-122.260;2023-02-16T07:34:20;5.10;69.90
54006;DHT22;39919;38.160;-122.260;2023-02-16T07:36:52;5.10;69.80
54006;DHT22;39919;38.160;-122.260;2023-02-16T07:39:21;5.10;70.00
54006;DHT22;39919;38.160;-122.260;2023-02-16T07:41:52;5.00;70.60
54006;DHT22;39919;38.160;-122.260;2023-02-16T07:44:21;5.00;70.60
54006;DHT22;39919;38.160;-122.260;2023-02-16T07:46:50;4.90;71.00
54006;DHT22;39919;38.160;-122.260;2023-02-16T07:49:19;4.90;70.70
54006;DHT22;39919;38.160;-122.260;2023-02-16T07:51:49;4.90;70.20
54006;DHT22;39919;38.160;-122.260;2023-02-16T07:54:18;4.80;69.90
54006;DHT22;39919;38.160;-122.260;2023-02-16T07:56:54;4.80;70.00
54006;DHT22;39919;38.160;-122.260;2023-02-16T07:59:23;4.70;70.30
54006;DHT22;39919;38.160;-122.260;2023-02-16T08:01:52;4.70;70.10
54006;DHT22;39919;38.160;-122.260;2023-02-16T08:04:21;4.70;69.70
54006;DHT22;39919;38.160;-122.260;2023-02-16T08:06:53;4.60;69.40
54006;DHT22;39919;38.160;-122.260;2023-02-16T08:09:22;4.60;69.20
54006;DHT22;39919;38.160;-122.260;2023-02-16T08:11:53;4.60;68.90
54006;DHT22;39919;38.160;-122.260;2023-02-16T08:14:23;4.60;68.70
54006;DHT22;39919;38.160;-122.260;2023-02-16T08:16:52;4.50;68.60
54006;DHT22;39919;38.160;-122.260;2023-02-16T08:22:07;4.50;68.70
54006;DHT22;39919;38.160;-122.260;2023-02-16T08:24:38;4.40;68.80
54006;DHT22;39919;38.160;-122.260;2023-02-16T08:27:09;4.40;68.70
54006;DHT22;39919;38.160;-122.260;2023-02-16T08:29:38;4.40;68.70
54006;DHT22;39919;38.160;-122.260;2023-02-16T08:32:10;4.30;68.60
54006;DHT22;39919;38.160;-122.260;2023-02-16T08:34:39;4.30;68.70
54006;DHT22;39919;38.160;-122.260;2023-02-16T08:37:11;4.30;68.80
54006;DHT22;39919;38.160;-122.260;2023-02-16T08:39:41;4.30;68.80
54006;DHT22;39919;38.160;-122.260;2023-02-16T08:42:12;4.20;68.70
54006;DHT22;39919;38.160;-122.260;2023-02-16T08:44:42;4.20;68.70
54006;DHT22;39919;38.160;-122.260;2023-02-16T08:47:11;4.20;68.80
54006;DHT22;39919;38.160;-122.260;2023-02-16T08:49:40;4.20;69.10
54006;DHT22;39919;38.160;-122.260;2023-02-16T08:52:10;4.10;69.30
54006;DHT22;39919;38.160;-122.260;2023-02-16T08:54:40;4.10;69.20
54006;DHT22;39919;38.160;-122.260;2023-02-16T08:57:11;4.10;69.00
54006;DHT22;39919;38.160;-122.260;2023-02-16T08:59:41;4.00;69.40
54006;DHT22;39919;38.160;-122.260;2023-02-16T09:02:10;4.00;69.20
54006;DHT22;39919;38.160;-122.260;2023-02-16T09:04:39;4.00;68.90
54006;DHT22;39919;38.160;-122.260;2023-02-16T09:07:11;3.90;69.10
54006;DHT22;39919;38.160;-122.260;2023-02-16T09:09:43;3.90;69.90
54006;DHT22;39919;38.160;-122.260;2023-02-16T09:12:16;3.90;69.60
54006;DHT22;39919;38.160;-122.260;2023-02-16T09:14:48;3.90;70.10
54006;DHT22;39919;38.160;-122.260;2023-02-16T09:17:18;3.70;69.80
54006;DHT22;39919;38.160;-122.260;2023-02-16T09:19:47;3.70;69.80
54006;DHT22;39919;38.160;-122.260;2023-02-16T09:22:16;3.70;69.80
54006;DHT22;39919;38.160;-122.260;2023-02-16T09:24:47;3.60;69.90
54006;DHT22;39919;38.160;-122.260;2023-02-16T09:27:19;3.60;70.20
54006;DHT22;39919;38.160;-122.260;2023-02-16T09:29:51;3.60;70.00
54006;DHT22;39919;38.160;-122.260;2023-02-16T09:32:20;3.50;70.50
54006;DHT22;39919;38.160;-122.260;2023-02-16T09:34:50;3.50;71.20
54006;DHT22;39919;38.160;-122.260;2023-02-16T09:37:19;3.40;71.10
54006;DHT22;39919;38.160;-122.260;2023-02-16T09:39:51;3.40;71.70
54006;DHT22;39919;38.160;-122.260;2023-02-16T09:42:30;3.40;71.70
54006;DHT22;39919;38.160;-122.260;2023-02-16T09:45:06;3.40;72.00
54006;DHT22;39919;38.160;-122.260;2023-02-16T09:47:40;3.30;71.90
54006;DHT22;39919;38.160;-122.260;2023-02-16T09:50:14;3.30;71.80
54006;DHT22;39919;38.160;-122.260;2023-02-16T09:52:52;3.30;71.70
54006;DHT22;39919;38.160;-122.260;2023-02-16T09:55:24;3.20;71.20
54006;DHT22;39919;38.160;-122.260;2023-02-16T09:58:06;3.20;71.20
54006;DHT22;39919;38.160;-122.260;2023-02-16T10:00:46;3.20;71.20
54006;DHT22;39919;38.160;-122.260;2023-02-16T10:03:34;3.20;71.60
54006;DHT22;39919;38.160;-122.260;2023-02-16T10:09:05;3.10;72.00
54006;DHT22;39919;38.160;-122.260;2023-02-16T10:11:41;3.10;72.60
54006;DHT22;39919;38.160;-122.260;2023-02-16T10:14:28;3.00;72.70
54006;DHT22;39919;38.160;-122.260;2023-02-16T10:17:05;3.00;72.80
54006;DHT22;39919;38.160;-122.260;2023-02-16T10:19:41;3.00;72.80
54006;DHT22;39919;38.160;-122.260;2023-02-16T10:22:13;3.00;73.20
54006;DHT22;39919;38.160;-122.260;2023-02-16T10:24:56;3.00;73.00
54006;DHT22;39919;38.160;-122.260;2023-02-16T10:27:31;2.90;72.90
54006;DHT22;39919;38.160;-122.260;2023-02-16T10:30:11;2.90;73.00
54006;DHT22;39919;38.160;-122.260;2023-02-16T10:32:52;2.90;73.40
54006;DHT22;39919;38.160;-122.260;2023-02-16T10:35:28;2.90;74.00
54006;DHT22;39919;38.160;-122.260;2023-02-16T10:38:06;2.80;73.40
54006;DHT22;39919;38.160;-122.260;2023-02-16T10:40:51;2.80;73.40
54006;DHT22;39919;38.160;-122.260;2023-02-16T10:43:36;2.80;73.70
54006;DHT22;39919;38.160;-122.260;2023-02-16T10:46:10;2.80;74.10
54006;DHT22;39919;38.160;-122.260;2023-02-16T10:48:42;2.70;73.80
54006;DHT22;39919;38.160;-122.260;2023-02-16T10:51:14;2.70;73.60
54006;DHT22;39919;38.160;-122.260;2023-02-16T10:53:49;2.70;73.60
54006;DHT22;39919;38.160;-122.260;2023-02-16T10:56:31;2.60;74.00
54006;DHT22;39919;38.160;-122.260;2023-02-16T10:59:06;2.60;74.50
54006;DHT22;39919;38.160;-122.260;2023-02-16T11:01:38;2.60;74.70
54006;DHT22;39919;38.160;-122.260;2023-02-16T11:04:07;2.60;74.90
54006;DHT22;39919;38.160;-122.260;2023-02-16T11:06:37;2.50;74.60
54006;DHT22;39919;38.160;-122.260;2023-02-16T11:09:15;2.50;74.50
54006;DHT22;39919;38.160;-122.260;2023-02-16T11:11:44;2.50;74.90
54006;DHT22;39919;38.160;-122.260;2023-02-16T11:14:21;2.40;74.80
54006;DHT22;39919;38.160;-122.260;2023-02-16T11:17:06;2.40;75.10
54006;DHT22;39919;38.160;-122.260;2023-02-16T11:19:38;2.40;75.70
54006;DHT22;39919;38.160;-122.260;2023-02-16T11:22:10;2.40;76.40
54006;DHT22;39919;38.160;-122.260;2023-02-16T11:24:51;2.30;76.60
54006;DHT22;39919;38.160;-122.260;2023-02-16T11:27:22;2.40;76.20
54006;DHT22;39919;38.160;-122.260;2023-02-16T11:30:14;2.30;75.70
54006;DHT22;39919;38.160;-122.260;2023-02-16T11:32:52;2.30;75.30
54006;DHT22;39919;38.160;-122.260;2023-02-16T11:35:22;2.30;75.50
54006;DHT22;39919;38.160;-122.260;2023-02-16T11:37:51;2.30;75.40
54006;DHT22;39919;38.160;-122.260;2023-02-16T11:40:23;2.20;76.50
54006;DHT22;39919;38.160;-122.260;2023-02-16T11:42:55;2.20;76.50
54006;DHT22;39919;38.160;-122.260;2023-02-16T11:45:28;2.20;76.20
54006;DHT22;39919;38.160;-122.260;2023-02-16T11:48:01;2.20;76.10
54006;DHT22;39919;38.160;-122.260;2023-02-16T11:50:35;2.20;76.10
54006;DHT22;39919;38.160;-122.260;2023-02-16T11:53:14;2.20;76.40
54006;DHT22;39919;38.160;-122.260;2023-02-16T11:55:45;2.20;76.20
54006;DHT22;39919;38.160;-122.260;2023-02-16T11:58:21;2.20;77.10
54006;DHT22;39919;38.160;-122.260;2023-02-16T12:00:58;2.10;77.70
54006;DHT22;39919;38.160;-122.260;2023-02-16T12:04:02;2.10;78.00
54006;DHT22;39919;38.160;-122.260;2023-02-16T12:06:52;2.10;77.80
54006;DHT22;39919;38.160;-122.260;2023-02-16T12:09:35;2.10;77.20
54006;DHT22;39919;38.160;-122.260;2023-02-16T12:12:11;2.10;76.80
54006;DHT22;39919;38.160;-122.260;2023-02-16T12:14:50;2.10;76.70
54006;DHT22;39919;38.160;-122.260;2023-02-16T12:17:35;2.10;77.40
54006;DHT22;39919;38.160;-122.260;2023-02-16T12:20:32;2.10;78.30
54006;DHT22;39919;38.160;-122.260;2023-02-16T12:23:13;2.00;78.30
54006;DHT22;39919;38.160;-122.260;2023-02-16T12:25:53;2.00;78.30
54006;DHT22;39919;38.160;-122.260;2023-02-16T12:28:29;2.00;78.80
54006;DHT22;39919;38.160;-122.260;2023-02-16T12:31:09;2.00;79.20
54006;DHT22;39919;38.160;-122.260;2023-02-16T12:33:47;2.00;79.60
54006;DHT22;39919;38.160;-122.260;2023-02-16T12:39:16;1.90;79.10
54006;DHT22;39919;38.160;-122.260;2023-02-16T12:41:54;1.90;78.80
54006;DHT22;39919;38.160;-122.260;2023-02-16T12:44:31;2.00;78.80
54006;DHT22;39919;38.160;-122.260;2023-02-16T12:47:03;1.90;78.70
54006;DHT22;39919;38.160;-122.260;2023-02-16T12:49:42;1.90;79.10
54006;DHT22;39919;38.160;-122.260;2023-02-16T15:36:05;2.90;80.20
54006;DHT22;39919;38.160;-122.260;2023-02-16T15:38:38;2.90;80.70
54006;DHT22;39919;38.160;-122.260;2023-02-16T15:41:12;2.90;80.80
54006;DHT22;39919;38.160;-122.260;2023-02-16T15:43:45;3.00;80.50
54006;DHT22;39919;38.160;-122.260;2023-02-16T15:46:24;3.10;79.10
54006;DHT22;39919;38.160;-122.260;2023-02-16T15:48:55;3.30;79.00
54006;DHT22;39919;38.160;-122.260;2023-02-16T15:51:27;3.40;79.10
54006;DHT22;39919;38.160;-122.260;2023-02-16T15:53:59;3.60;79.30
54006;DHT22;39919;38.160;-122.260;2023-02-16T15:56:38;3.70;79.30
54006;DHT22;39919;38.160;-122.260;2023-02-16T15:59:27;3.90;79.30
54006;DHT22;39919;38.160;-122.260;2023-02-16T16:01:59;4.10;78.80
54006;DHT22;39919;38.160;-122.260;2023-02-16T16:04:31;4.30;77.40
54006;DHT22;39919;38.160;-122.260;2023-02-16T16:07:07;4.50;76.10
54006;DHT22;39919;38.160;-122.260;2023-02-16T16:09:42;4.70;75.70
54006;DHT22;39919;38.160;-122.260;2023-02-16T16:12:13;4.90;74.20
54006;DHT22;39919;38.160;-122.260;2023-02-16T16:14:50;5.00;73.50
54006;DHT22;39919;38.160;-122.260;2023-02-16T16:17:23;5.10;73.10
54006;DHT22;39919;38.160;-122.260;2023-02-16T16:19:56;5.30;72.20
54006;DHT22;39919;38.160;-122.260;2023-02-16T16:22:32;5.40;72.20
54006;DHT22;39919;38.160;-122.260;2023-02-16T16:25:29;5.50;72.10
54006;DHT22;39919;38.160;-122.260;2023-02-16T16:27:59;5.60;72.00
54006;DHT22;39919;38.160;-122.260;2023-02-16T16:30:30;5.80;72.30
54006;DHT22;39919;38.160;-122.260;2023-02-16T16:33:01;5.90;71.80
54006;DHT22;39919;38.160;-122.260;2023-02-16T16:35:37;6.00;71.40
54006;DHT22;39919;38.160;-122.260;2023-02-16T16:38:16;6.20;70.60
54006;DHT22;39919;38.160;-122.260;2023-02-16T16:40:53;6.30;70.10
54006;DHT22;39919;38.160;-122.260;2023-02-16T16:43:27;6.40;69.10
54006;DHT22;39919;38.160;-122.260;2023-02-16T16:46:10;6.50;68.60
54006;DHT22;39919;38.160;-122.260;2023-02-16T16:48:43;6.70;68.50
54006;DHT22;39919;38.160;-122.260;2023-02-16T16:51:19;6.80;67.60
54006;DHT22;39919;38.160;-122.260;2023-02-16T16:53:53;6.90;67.50
54006;DHT22;39919;38.160;-122.260;2023-02-16T16:56:27;7.00;67.30
54006;DHT22;39919;38.160;-122.260;2023-02-16T16:58:57;7.20;67.10
54006;DHT22;39919;38.160;-122.260;2023-02-16T17:01:28;7.40;66.80
54006;DHT22;39919;38.160;-122.260;2023-02-16T17:03:57;7.80;67.10
54006;DHT22;39919;38.160;-122.260;2023-02-16T17:06:31;8.20;64.40
54006;DHT22;39919;38.160;-122.260;2023-02-16T17:09:02;8.70;63.40
54006;DHT22;39919;38.160;-122.260;2023-02-16T17:11:34;9.10;62.20
54006;DHT22;39919;38.160;-122.260;2023-02-16T17:14:07;9.50;60.40
54006;DHT22;39919;38.160;-122.260;2023-02-16T17:16:39;9.80;59.70
54006;DHT22;39919;38.160;-122.260;2023-02-16T17:19:11;10.10;59.10
54006;DHT22;39919;38.160;-122.260;2023-02-16T17:21:42;10.20;58.10
54006;DHT22;39919;38.160;-122.260;2023-02-16T17:24:11;10.40;58.10
54006;DHT22;39919;38.160;-122.260;2023-02-16T17:26:41;10.60;58.20
54006;DHT22;39919;38.160;-122.260;2023-02-16T17:29:10;10.70;56.70
54006;DHT22;39919;38.160;-122.260;2023-02-16T17:31:39;11.00;56.80
54006;DHT22;39919;38.160;-122.260;2023-02-16T17:34:08;11.40;56.50
54006;DHT22;39919;38.160;-122.260;2023-02-16T17:36:37;11.70;55.20
54006;DHT22;39919;38.160;-122.260;2023-02-16T17:39:08;12.10;54.70
54006;DHT22;39919;38.160;-122.260;2023-02-16T17:41:37;12.40;55.40
54006;DHT22;39919;38.160;-122.260;2023-02-16T17:44:06;12.70;54.70
54006;DHT22;39919;38.160;-122.260;2023-02-16T17:46:36;13.10;53.60
54006;DHT22;39919;38.160;-122.260;2023-02-16T17:49:10;13.40;52.70
54006;DHT22;39919;38.160;-122.260;2023-02-16T17:51:40;13.70;51.40
54006;DHT22;39919;38.160;-122.260;2023-02-16T17:54:11;13.90;51.80
54006;DHT22;39919;38.160;-122.260;2023-02-16T17:56:40;14.10;51.70
54006;DHT22;39919;38.160;-122.260;2023-02-16T17:59:10;14.20;50.70
54006;DHT22;39919;38.160;-122.260;2023-02-16T18:01:42;14.50;50.70
54006;DHT22;39919;38.160;-122.260;2023-02-16T18:04:13;14.70;49.40
54006;DHT22;39919;38.160;-122.260;2023-02-16T18:06:45;15.10;49.00
54006;DHT22;39919;38.160;-122.260;2023-02-16T18:09:18;15.40;47.50
54006;DHT22;39919;38.160;-122.260;2023-02-16T18:11:50;15.80;46.40
54006;DHT22;39919;38.160;-122.260;2023-02-16T18:14:19;16.00;45.00
54006;DHT22;39919;38.160;-122.260;2023-02-16T18:16:50;16.20;45.40
54006;DHT22;39919;38.160;-122.260;2023-02-16T18:19:19;16.20;44.00
54006;DHT22;39919;38.160;-122.260;2023-02-16T18:21:52;16.10;44.20
54006;DHT22;39919;38.160;-122.260;2023-02-16T18:24:23;16.00;45.60
54006;DHT22;39919;38.160;-122.260;2023-02-16T18:26:52;16.10;46.10
54006;DHT22;39919;38.160;-122.260;2023-02-16T18:29:22;16.30;45.80
54006;DHT22;39919;38.160;-122.260;2023-02-16T18:31:51;16.50;44.80
54006;DHT22;39919;38.160;-122.260;2023-02-16T18:34:23;16.70;44.20
54006;DHT22;39919;38.160;-122.260;2023-02-16T18:36:52;16.70;43.60
54006;DHT22;39919;38.160;-122.260;2023-02-16T18:39:23;16.80;42.20
54006;DHT22;39919;38.160;-122.260;2023-02-16T18:41:52;16.80;43.60
54006;DHT22;39919;38.160;-122.260;2023-02-16T18:44:21;16.80;43.50
54006;DHT22;39919;38.160;-122.260;2023-02-16T18:46:51;16.90;44.10
54006;DHT22;39919;38.160;-122.260;2023-02-16T18:49:20;17.00;44.50
54006;DHT22;39919;38.160;-122.260;2023-02-16T18:51:49;17.10;45.00
54006;DHT22;39919;38.160;-122.260;2023-02-16T18:54:18;17.40;45.20
54006;DHT22;39919;38.160;-122.260;2023-02-16T18:56:52;17.60;43.40
54006;DHT22;39919;38.160;-122.260;2023-02-16T18:59:21;17.70;42.20
54006;DHT22;39919;38.160;-122.260;2023-02-16T19:01:54;17.70;44.00
54006;DHT22;39919;38.160;-122.260;2023-02-16T19:04:24;17.60;42.00
54006;DHT22;39919;38.160;-122.260;2023-02-16T19:06:53;17.40;42.20
54006;DHT22;39919;38.160;-122.260;2023-02-16T19:09:24;17.10;42.10
54006;DHT22;39919;38.160;-122.260;2023-02-16T19:11:55;16.70;42.40
54006;DHT22;39919;38.160;-122.260;2023-02-16T19:14:24;16.30;43.30
54006;DHT22;39919;38.160;-122.260;2023-02-16T19:16:53;16.10;44.40
54006;DHT22;39919;38.160;-122.260;2023-02-16T19:19:22;16.10;45.00
54006;DHT22;39919;38.160;-122.260;2023-02-16T19:21:52;16.20;44.80
54006;DHT22;39919;38.160;-122.260;2023-02-16T19:24:21;16.30;44.40
54006;DHT22;39919;38.160;-122.260;2023-02-16T19:26:50;16.40;43.90
54006;DHT22;39919;38.160;-122.260;2023-02-16T19:29:21;16.30;44.50
54006;DHT22;39919;38.160;-122.260;2023-02-16T19:31:51;16.30;44.50
54006;DHT22;39919;38.160;-122.260;2023-02-16T19:34:20;16.20;44.40
54006;DHT22;39919;38.160;-122.260;2023-02-16T19:36:52;16.10;43.70
54006;DHT22;39919;38.160;-122.260;2023-02-16T19:39:21;16.10;45.00
54006;DHT22;39919;38.160;-122.260;2023-02-16T19:41:50;16.00;45.10
54006;DHT22;39919;38.160;-122.260;2023-02-16T19:44:21;15.80;44.80
54006;DHT22;39919;38.160;-122.260;2023-02-16T19:46:51;15.60;45.00
54006;DHT22;39919;38.160;-122.260;2023-02-16T19:49:20;15.40;46.10
54006;DHT22;39919;38.160;-122.260;2023-02-16T19:51:59;15.20;46.30
54006;DHT22;39919;38.160;-122.260;2023-02-16T19:54:36;15.00;47.30
54006;DHT22;39919;38.160;-122.260;2023-02-16T19:57:05;14.70;47.60
54006;DHT22;39919;38.160;-122.260;2023-02-16T19:59:36;14.40;48.00
54006;DHT22;39919;38.160;-122.260;2023-02-16T20:02:05;14.30;48.50